Аэропорт: Одесса. Одесса

ICAO: UKOO

METAR:
2021-07-28 13:30:00
UKOO 281330Z 18006MPS 9999 FEW///TCU 30/21 Q1014 R16/090095 NOSIG
METAR:
2021-07-28 11:09:00
TAF UKOO 281109Z 2812/2912 18007G14MPS 6000 BKN010 SCT020CB TX32/2812Z TN21/2902Z PROB40 TEMPO 2812/2818 VRB10G17MPS 2100 -TSRAGR BECMG 2818/2819 21005G11MPS TEMPO 2819/2905 2100 -SHRA